Time;durP1;ratioP1;P1;durP2;ratioP2;P2;SDS_P1;SDS_P2;PMS_P1;PMS_P2;Temp;Humidity;BMP_temperature;BMP_pressure;BME280_temperature;BME280_humidity;BME280_pressure;Samples;Min_cycle;Max_cycle;Signal;HPM_P1;HPM_P2
2020/12/15 00:02:03;;;;;;;14.40;13.10;;;7.90;47.90;;;;;;10362373;28;20245;-72
2020/12/15 00:07:06;;;;;;;14.70;13.30;;;7.90;47.90;;;;;;10364829;28;20322;-72
2020/12/15 00:12:09;;;;;;;16.23;14.63;;;7.90;47.90;;;;;;10365939;28;20234;-72
2020/12/15 00:17:11;;;;;;;14.27;12.87;;;7.90;47.90;;;;;;10362230;28;20314;-72
2020/12/15 00:22:14;;;;;;;13.93;12.63;;;7.90;47.90;;;;;;10362896;28;20218;-72
2020/12/15 00:27:16;;;;;;;15.50;13.90;;;8.00;47.90;;;;;;10362809;28;20222;-72
2020/12/15 00:32:18;;;;;;;14.37;12.93;;;8.00;48.00;;;;;;10363033;28;20635;-72
2020/12/15 00:37:22;;;;;;;15.30;13.87;;;8.00;47.80;;;;;;10361049;28;20289;-72
2020/12/15 00:42:24;;;;;;;16.10;14.50;;;8.00;47.80;;;;;;10363790;28;20234;-72
2020/12/15 00:47:26;;;;;;;15.23;13.83;;;8.00;47.90;;;;;;10363942;28;20596;-72
2020/12/15 00:52:30;;;;;;;15.80;14.27;;;8.00;47.80;;;;;;10359032;28;20230;-72
2020/12/15 00:57:32;;;;;;;14.80;13.40;;;8.00;47.90;;;;;;10363274;28;20237;-72
2020/12/15 01:02:35;;;;;;;16.83;15.23;;;8.10;47.90;;;;;;10358102;28;20722;-72
2020/12/15 01:07:38;;;;;;;16.20;14.70;;;8.10;47.80;;;;;;10354945;28;20351;-72
2020/12/15 01:12:40;;;;;;;15.97;14.37;;;8.10;47.90;;;;;;10364538;28;20235;-72
2020/12/15 01:17:42;;;;;;;15.57;14.03;;;8.10;47.90;;;;;;10358304;28;20229;-72
2020/12/15 01:22:45;;;;;;;16.73;15.03;;;8.10;47.70;;;;;;10353209;28;20257;-71
2020/12/15 01:27:47;;;;;;;15.40;13.90;;;8.10;47.90;;;;;;10359710;28;20699;-71
2020/12/15 01:32:50;;;;;;;17.23;15.50;;;8.10;47.80;;;;;;10357256;28;20230;-72
2020/12/15 01:37:53;;;;;;;15.90;14.33;;;8.10;47.70;;;;;;10359796;28;20233;-72
2020/12/15 01:42:55;;;;;;;16.07;14.40;;;8.10;47.80;;;;;;10352998;28;20233;-72
2020/12/15 01:47:57;;;;;;;17.40;15.70;;;8.10;47.90;;;;;;10353745;28;20229;-72
2020/12/15 01:53:00;;;;;;;17.83;16.03;;;8.10;47.90;;;;;;10358730;28;20230;-72
2020/12/15 01:58:03;;;;;;;17.47;15.73;;;8.10;47.90;;;;;;10356650;28;20309;-72
2020/12/15 02:03:05;;;;;;;16.13;14.53;;;8.10;47.70;;;;;;10357934;28;20241;-72
2020/12/15 02:08:08;;;;;;;15.70;14.20;;;8.10;47.80;;;;;;10356837;28;20621;-72
2020/12/15 02:13:11;;;;;;;16.20;14.47;;;8.10;47.60;;;;;;10357768;28;20234;-72
2020/12/15 02:18:13;;;;;;;17.07;15.37;;;8.10;47.80;;;;;;10358041;28;20371;-76
2020/12/15 02:23:16;;;;;;;17.50;15.70;;;8.00;47.60;;;;;;10352021;28;20230;-72
2020/12/15 02:28:19;;;;;;;17.33;15.53;;;8.00;47.50;;;;;;10362909;28;20238;-72
2020/12/15 02:33:21;;;;;;;16.60;14.90;;;7.90;47.50;;;;;;10354322;28;20237;-71
2020/12/15 02:43:28;;;;;;;13.93;12.53;;;7.80;47.60;;;;;;10277589;28;20227;-69
2020/12/15 02:48:30;;;;;;;14.67;13.27;;;7.70;47.80;;;;;;10275050;28;20235;-69
2020/12/15 02:53:33;;;;;;;17.30;15.57;;;7.70;47.80;;;;;;10272343;28;20239;-69
2020/12/15 02:58:36;;;;;;;16.67;14.97;;;7.70;47.90;;;;;;10273209;28;20234;-69
2020/12/15 03:03:38;;;;;;;15.30;13.77;;;7.70;47.90;;;;;;10275746;28;20233;-69
2020/12/15 03:08:40;;;;;;;17.30;15.60;;;7.70;47.80;;;;;;10274118;28;20235;-70
2020/12/15 03:13:43;;;;;;;16.93;15.13;;;7.60;47.90;;;;;;10277667;28;20242;-69
2020/12/15 03:18:46;;;;;;;17.40;15.67;;;7.60;47.90;;;;;;10279213;28;20603;-69
2020/12/15 03:23:48;;;;;;;15.37;13.80;;;7.60;48.00;;;;;;10268823;28;20226;-69
2020/12/15 03:28:51;;;;;;;15.10;13.60;;;7.60;48.10;;;;;;10275609;28;20712;-69
2020/12/15 03:33:53;;;;;;;17.57;15.73;;;7.60;48.10;;;;;;10279855;28;20232;-69
2020/12/15 03:38:55;;;;;;;17.37;15.63;;;7.60;47.90;;;;;;10278206;28;20250;-69
2020/12/15 03:43:59;;;;;;;18.30;16.40;;;7.60;48.00;;;;;;10281701;28;20223;-69
2020/12/15 03:49:01;;;;;;;17.33;15.30;;;7.50;48.00;;;;;;10277915;28;20228;-69
2020/12/15 03:54:03;;;;;;;17.90;16.00;;;7.50;48.10;;;;;;10286412;28;20361;-69
2020/12/15 03:59:07;;;;;;;17.80;16.00;;;7.40;48.20;;;;;;10286501;28;20232;-69
2020/12/15 04:04:09;;;;;;;18.23;16.17;;;7.40;48.30;;;;;;10290911;28;20234;-69
2020/12/15 04:09:11;;;;;;;17.90;16.00;;;7.50;48.40;;;;;;10279203;28;20235;-69
2020/12/15 04:14:15;;;;;;;18.37;16.43;;;7.50;48.30;;;;;;10280962;28;20646;-69
2020/12/15 04:19:17;;;;;;;18.43;16.63;;;7.50;48.20;;;;;;10287391;28;20270;-69
2020/12/15 04:24:19;;;;;;;18.27;16.30;;;7.40;48.30;;;;;;10276441;28;20568;-69
2020/12/15 04:29:22;;;;;;;17.90;16.00;;;7.40;48.20;;;;;;10290198;28;20243;-69
2020/12/15 04:34:24;;;;;;;19.30;17.23;;;7.40;48.30;;;;;;10281704;28;20245;-73
2020/12/15 04:39:26;;;;;;;18.33;16.43;;;7.40;48.20;;;;;;10289575;28;20238;-73
2020/12/15 04:44:31;;;;;;;18.87;16.90;;;7.40;48.10;;;;;;10284395;28;20628;-73
2020/12/15 04:49:46;;;;;;;19.27;17.37;;;7.40;48.40;;;;;;10290426;28;20290;-73
2020/12/15 04:54:51;;;;;;;19.23;17.23;;;7.30;48.40;;;;;;10282485;28;20595;-73
2020/12/15 04:59:55;;;;;;;17.83;16.03;;;7.40;48.50;;;;;;10284887;28;20234;-72
2020/12/15 05:04:59;;;;;;;17.33;15.57;;;7.40;48.50;;;;;;10279964;28;20290;-73
2020/12/15 05:10:01;;;;;;;16.50;14.80;;;7.40;48.40;;;;;;10291438;28;20595;-73
2020/12/15 05:15:10;;;;;;;17.27;15.50;;;7.40;48.40;;;;;;10280767;28;20260;-72
2020/12/15 05:20:17;;;;;;;18.77;16.90;;;7.40;48.50;;;;;;10283724;28;20235;-72
2020/12/15 05:25:24;;;;;;;17.47;15.77;;;7.40;48.40;;;;;;10281767;28;20227;-72
2020/12/15 05:30:29;;;;;;;17.33;15.63;;;7.40;48.50;;;;;;10280789;28;20239;-73
2020/12/15 05:35:33;;;;;;;19.07;17.17;;;7.30;48.20;;;;;;10280851;28;20231;-72
2020/12/15 05:40:38;;;;;;;18.23;16.43;;;7.30;47.60;;;;;;10281934;28;20723;-72
2020/12/15 05:45:50;;;;;;;18.40;16.50;;;7.30;48.40;;;;;;10287871;28;20235;-73
2020/12/15 05:50:57;;;;;;;17.20;15.40;;;7.20;48.40;;;;;;10282957;28;20237;-70
2020/12/15 05:56:00;;;;;;;17.83;16.03;;;7.20;48.60;;;;;;10276577;28;20791;-70
2020/12/15 06:01:10;;;;;;;19.20;17.20;;;7.20;48.50;;;;;;10285878;28;20239;-72
2020/12/15 06:06:13;;;;;;;18.63;16.73;;;7.30;48.60;;;;;;10278947;28;20661;-73
2020/12/15 06:11:19;;;;;;;17.47;15.57;;;7.30;48.40;;;;;;10282844;28;20315;-73
2020/12/15 06:16:28;;;;;;;18.90;16.97;;;7.40;48.50;;;;;;10284054;28;20239;-73
2020/12/15 06:21:30;;;;;;;21.03;18.80;;;7.40;48.40;;;;;;10277028;28;20251;-73
2020/12/15 06:26:34;;;;;;;19.40;17.33;;;7.40;48.50;;;;;;10284636;28;20227;-73
2020/12/15 06:31:37;;;;;;;16.97;15.27;;;7.30;48.40;;;;;;10278598;28;20795;-73
2020/12/15 06:36:41;;;;;;;18.43;16.43;;;7.30;48.50;;;;;;10286351;28;20234;-72
2020/12/15 06:41:43;;;;;;;15.93;14.33;;;7.40;48.50;;;;;;10277315;28;20257;-73
2020/12/15 06:46:53;;;;;;;16.57;14.87;;;7.40;48.50;;;;;;10277290;28;20759;-73
2020/12/15 06:51:57;;;;;;;18.60;16.13;;;7.40;48.60;;;;;;10284624;28;20219;-73
2020/12/15 06:57:05;;;;;;;16.90;15.20;;;7.50;48.40;;;;;;10275468;28;20230;-73
2020/12/15 07:02:11;;;;;;;15.87;14.33;;;7.40;48.50;;;;;;10284416;28;20366;-72
2020/12/15 07:07:16;;;;;;;17.60;15.53;;;7.50;48.60;;;;;;10273296;28;20285;-73
2020/12/15 07:12:18;;;;;;;18.20;16.33;;;7.50;48.30;;;;;;10283685;28;20227;-73
2020/12/15 07:17:23;;;;;;;17.37;15.67;;;7.50;48.30;;;;;;10273674;28;20249;-73
2020/12/15 07:22:25;;;;;;;18.20;16.40;;;7.40;48.20;;;;;;10273277;28;20227;-72
2020/12/15 07:27:29;;;;;;;20.10;17.33;;;7.40;48.20;;;;;;10286833;28;20227;-73
2020/12/15 07:32:36;;;;;;;18.50;16.60;;;7.40;48.40;;;;;;10288810;28;20311;-73
2020/12/15 07:37:40;;;;;;;19.37;17.33;;;7.40;48.50;;;;;;10292199;28;20294;-73
2020/12/15 07:42:53;;;;;;;21.00;18.83;;;7.40;48.50;;;;;;10289096;28;20610;-72
2020/12/15 07:47:57;;;;;;;18.77;16.80;;;7.40;48.60;;;;;;10283940;28;20226;-73
2020/12/15 07:53:08;;;;;;;18.80;16.83;;;7.50;49.30;;;;;;10267771;28;20234;-73
2020/12/15 07:58:15;;;;;;;17.27;15.50;;;7.50;48.30;;;;;;10271382;28;20219;-73
2020/12/15 08:03:20;;;;;;;19.30;17.30;;;7.50;48.40;;;;;;10276940;28;20294;-73
2020/12/15 08:08:23;;;;;;;19.47;17.37;;;7.50;48.40;;;;;;10269084;28;20223;-73
2020/12/15 08:13:26;;;;;;;17.87;16.07;;;7.50;48.40;;;;;;10272162;28;20338;-73
2020/12/15 08:18:30;;;;;;;18.63;16.70;;;7.50;48.20;;;;;;10285984;28;20234;-73
2020/12/15 08:23:38;;;;;;;19.40;16.43;;;7.50;48.10;;;;;;10278763;28;20675;-73
2020/12/15 08:28:41;;;;;;;18.60;16.03;;;7.40;48.20;;;;;;10288957;28;20839;-72
2020/12/15 08:33:44;;;;;;;19.43;17.03;;;7.40;48.10;;;;;;10287111;28;20246;-73
2020/12/15 08:38:46;;;;;;;18.20;16.30;;;7.40;48.10;;;;;;10285936;28;20242;-70
2020/12/15 08:43:50;;;;;;;19.87;17.03;;;7.40;48.30;;;;;;10277043;28;20700;-70
2020/12/15 08:48:53;;;;;;;21.47;17.77;;;7.50;48.40;;;;;;10286100;28;20238;-70
2020/12/15 08:53:55;;;;;;;24.67;19.20;;;7.40;48.30;;;;;;10279551;28;20242;-69
2020/12/15 08:58:57;;;;;;;24.00;19.30;;;7.50;48.30;;;;;;10280104;28;20225;-69
2020/12/15 09:04:00;;;;;;;26.70;20.90;;;7.50;48.70;;;;;;10275828;28;20255;-69
2020/12/15 09:09:05;;;;;;;25.30;19.87;;;7.50;48.90;;;;;;10267830;28;20228;-70
2020/12/15 09:14:08;;;;;;;27.83;21.73;;;7.50;48.30;;;;;;10266242;28;20258;-70
2020/12/15 09:19:13;;;;;;;28.27;22.07;;;7.50;48.30;;;;;;10288498;28;20294;-70
2020/12/15 09:24:15;;;;;;;22.57;18.40;;;7.50;48.10;;;;;;10273301;28;20258;-70
2020/12/15 09:29:18;;;;;;;20.20;17.87;;;7.50;48.30;;;;;;10274227;28;20234;-70
2020/12/15 09:34:21;;;;;;;17.97;15.73;;;7.50;48.30;;;;;;10274442;28;20246;-70
2020/12/15 09:39:25;;;;;;;18.23;15.93;;;7.50;48.30;;;;;;10276909;28;20731;-70
2020/12/15 09:44:28;;;;;;;17.23;15.43;;;7.40;48.10;;;;;;10270656;28;20227;-70
2020/12/15 09:49:31;;;;;;;16.80;15.00;;;7.40;48.20;;;;;;10277794;28;20731;-70
2020/12/15 09:54:36;;;;;;;14.80;12.37;;;7.50;48.60;;;;;;10267692;28;20239;-70
2020/12/15 09:59:38;;;;;;;16.90;14.83;;;7.50;48.70;;;;;;10278753;28;20243;-70
2020/12/15 10:04:41;;;;;;;18.07;16.17;;;7.50;48.60;;;;;;10274786;28;20231;-70
2020/12/15 10:09:43;;;;;;;16.83;14.97;;;7.50;48.60;;;;;;10280302;28;20232;-70
2020/12/15 10:14:46;;;;;;;17.63;15.73;;;7.60;48.60;;;;;;10276189;28;20230;-69
2020/12/15 10:19:49;;;;;;;18.53;16.53;;;7.60;48.50;;;;;;10273275;28;20243;-69
2020/12/15 10:24:51;;;;;;;17.30;14.30;;;7.60;48.30;;;;;;10280506;28;20223;-69
2020/12/15 10:29:53;;;;;;;20.33;18.17;;;7.70;48.60;;;;;;10277673;28;20228;-69
2020/12/15 10:34:56;;;;;;;17.97;15.93;;;7.70;48.60;;;;;;10280624;28;20230;-70
2020/12/15 10:39:59;;;;;;;19.33;17.30;;;7.70;48.50;;;;;;10281080;28;20223;-71
2020/12/15 10:45:02;;;;;;;18.30;16.40;;;7.80;48.60;;;;;;10279289;28;20255;-71
2020/12/15 10:50:05;;;;;;;18.37;16.03;;;7.80;48.50;;;;;;10270409;28;20684;-71
2020/12/15 10:55:08;;;;;;;19.20;17.03;;;7.80;48.70;;;;;;10272512;28;20462;-72
2020/12/15 11:00:10;;;;;;;18.70;16.70;;;7.90;48.90;;;;;;10276991;28;20232;-72
2020/12/15 11:05:13;;;;;;;19.97;17.00;;;8.00;49.10;;;;;;10271005;28;20223;-72
2020/12/15 11:10:15;;;;;;;18.90;16.93;;;8.10;49.00;;;;;;10277709;28;20228;-71
2020/12/15 11:15:17;;;;;;;18.10;16.20;;;8.20;49.10;;;;;;10273862;28;20238;-71
2020/12/15 11:20:21;;;;;;;19.13;17.13;;;8.30;49.00;;;;;;10276826;28;20742;-71
2020/12/15 11:25:24;;;;;;;19.27;17.20;;;8.40;48.80;;;;;;10282168;28;20227;-71
2020/12/15 11:30:26;;;;;;;19.63;17.53;;;8.50;48.60;;;;;;10277875;28;20260;-71
2020/12/15 11:35:29;;;;;;;17.67;15.87;;;8.50;48.30;;;;;;10276394;28;20274;-71
2020/12/15 11:40:31;;;;;;;18.13;15.90;;;8.50;47.90;;;;;;10271747;28;20227;-71
2020/12/15 11:45:34;;;;;;;16.83;15.13;;;8.50;47.70;;;;;;10271837;28;20220;-71
2020/12/15 11:50:38;;;;;;;17.67;15.77;;;8.40;47.50;;;;;;10278584;28;20249;-71
2020/12/15 11:55:40;;;;;;;15.63;14.03;;;8.20;47.70;;;;;;10272775;28;20246;-72
2020/12/15 12:00:42;;;;;;;16.40;14.63;;;8.20;47.90;;;;;;10276720;28;20307;-72
2020/12/15 12:05:45;;;;;;;17.90;16.03;;;8.20;47.90;;;;;;10271292;28;20262;-72
2020/12/15 12:10:47;;;;;;;17.63;15.53;;;8.10;48.10;;;;;;10278767;28;20242;-72
2020/12/15 12:15:50;;;;;;;17.50;15.57;;;8.10;48.20;;;;;;10280101;28;20220;-72
2020/12/15 12:20:53;;;;;;;18.53;16.60;;;8.20;48.90;;;;;;10288415;28;20602;-72
2020/12/15 12:25:55;;;;;;;18.33;16.43;;;8.20;48.10;;;;;;10287666;28;20220;-72
2020/12/15 12:30:57;;;;;;;19.47;17.47;;;8.20;48.30;;;;;;10286517;28;20232;-71
2020/12/15 12:36:00;;;;;;;19.80;17.07;;;8.20;48.40;;;;;;10286067;28;20244;-71
2020/12/15 12:41:02;;;;;;;16.80;15.00;;;8.20;47.90;;;;;;10286690;28;20544;-71
2020/12/15 12:46:04;;;;;;;19.80;17.70;;;8.20;48.10;;;;;;10283073;28;20247;-71
2020/12/15 12:51:08;;;;;;;18.53;16.50;;;8.20;48.20;;;;;;10283914;28;20256;-71
2020/12/15 12:56:10;;;;;;;19.27;16.83;;;8.30;48.50;;;;;;10276755;28;20227;-71
2020/12/15 13:01:13;;;;;;;18.33;16.37;;;8.30;48.50;;;;;;10277713;28;20598;-71
2020/12/15 13:06:16;;;;;;;17.40;15.27;;;8.40;48.10;;;;;;10282826;28;20231;-71
2020/12/15 13:11:18;;;;;;;18.80;16.80;;;8.40;48.10;;;;;;10280415;28;20253;-71
2020/12/15 13:16:21;;;;;;;21.20;18.90;;;8.50;48.20;;;;;;10279160;28;20700;-71
2020/12/15 13:21:24;;;;;;;17.47;15.60;;;8.50;48.00;;;;;;10280181;28;20674;-71
2020/12/15 13:26:27;;;;;;;19.30;17.20;;;8.50;48.10;;;;;;10278636;28;20220;-71
2020/12/15 13:31:29;;;;;;;19.90;17.80;;;8.50;47.90;;;;;;10278950;28;22356;-71
2020/12/15 13:36:32;;;;;;;20.10;17.90;;;8.50;47.80;;;;;;10278367;28;20225;-71
2020/12/15 13:41:35;;;;;;;21.03;18.87;;;8.40;47.70;;;;;;10279471;28;20223;-71
2020/12/15 13:46:37;;;;;;;20.60;18.50;;;8.40;47.90;;;;;;10273916;28;20730;-71
2020/12/15 13:51:53;;;;;;;20.97;18.77;;;8.40;48.10;;;;;;10276556;28;20302;-71
2020/12/15 13:56:55;;;;;;;22.33;18.83;;;8.30;48.00;;;;;;10278547;28;20216;-70
2020/12/15 14:01:59;;;;;;;20.53;18.43;;;8.30;47.90;;;;;;10274672;28;20227;-70
2020/12/15 14:07:02;;;;;;;21.73;18.07;;;8.30;48.00;;;;;;10269619;28;20588;-70
2020/12/15 14:12:05;;;;;;;17.47;15.67;;;8.20;48.10;;;;;;10278322;28;20251;-71
2020/12/15 14:17:07;;;;;;;18.27;16.00;;;8.20;48.10;;;;;;10278691;28;20230;-70
2020/12/15 14:22:10;;;;;;;18.43;15.87;;;8.10;48.10;;;;;;10281506;28;20319;-73
2020/12/15 14:27:12;;;;;;;17.70;15.90;;;8.20;48.30;;;;;;10268654;28;20224;-74
2020/12/15 14:32:15;;;;;;;17.33;14.70;;;8.20;48.30;;;;;;10282909;28;20266;-73
2020/12/15 14:37:18;;;;;;;17.67;15.80;;;8.10;48.10;;;;;;10279134;28;20670;-73
2020/12/15 14:42:21;;;;;;;15.67;14.03;;;8.20;48.30;;;;;;10281337;28;20742;-73
2020/12/15 14:47:23;;;;;;;18.63;16.63;;;8.20;48.40;;;;;;10283447;28;20223;-73
2020/12/15 14:52:26;;;;;;;18.43;16.53;;;8.20;48.40;;;;;;10279114;28;20232;-73
2020/12/15 14:57:29;;;;;;;16.40;14.60;;;8.30;48.30;;;;;;10278592;28;20306;-73
2020/12/15 15:02:31;;;;;;;14.77;13.20;;;8.30;48.30;;;;;;10285663;28;20228;-74
2020/12/15 15:07:34;;;;;;;14.03;12.20;;;8.40;48.40;;;;;;10282628;28;20219;-73
2020/12/15 15:12:46;;;;;;;17.50;14.93;;;8.40;48.30;;;;;;10281464;28;20232;-73
2020/12/15 15:17:48;;;;;;;17.50;15.77;;;8.50;48.20;;;;;;10277961;28;20306;-73
2020/12/15 15:22:51;;;;;;;17.00;15.27;;;8.50;48.10;;;;;;10276882;28;20224;-73
2020/12/15 15:27:53;;;;;;;18.60;16.67;;;8.50;48.10;;;;;;10284091;28;20224;-73
2020/12/15 15:32:55;;;;;;;18.30;16.23;;;8.50;48.00;;;;;;10283834;28;20307;-73
2020/12/15 15:37:58;;;;;;;19.97;17.50;;;8.40;48.60;;;;;;10276382;28;20223;-73
2020/12/15 15:43:01;;;;;;;19.00;17.03;;;8.50;47.90;;;;;;10284805;28;20671;-73
2020/12/15 15:48:03;;;;;;;17.90;16.10;;;8.50;47.90;;;;;;10279550;28;23099;-72
2020/12/15 15:53:06;;;;;;;15.23;13.63;;;8.40;47.90;;;;;;10283715;28;20330;-72
2020/12/15 15:58:09;;;;;;;20.33;17.60;;;8.40;48.00;;;;;;10291932;28;20270;-72
2020/12/15 16:03:12;;;;;;;20.60;18.43;;;8.50;48.10;;;;;;10301862;28;20598;-73
2020/12/15 16:08:15;;;;;;;21.10;18.93;;;8.50;48.10;;;;;;10287003;28;20242;-72
2020/12/15 16:13:17;;;;;;;27.70;24.57;;;8.50;48.00;;;;;;10288834;28;20711;-72
2020/12/15 16:18:20;;;;;;;29.90;25.00;;;8.60;48.00;;;;;;10287520;28;20228;-72
2020/12/15 16:23:23;;;;;;;27.00;23.90;;;8.60;47.90;;;;;;10291780;28;20228;-72
2020/12/15 16:28:25;;;;;;;21.33;18.80;;;8.60;47.90;;;;;;10294334;28;20609;-72
2020/12/15 16:33:28;;;;;;;22.50;20.03;;;8.60;48.10;;;;;;10289547;28;20279;-72
2020/12/15 16:38:31;;;;;;;22.57;19.33;;;8.60;48.00;;;;;;10286483;28;20223;-72
2020/12/15 16:43:36;;;;;;;26.70;20.53;;;8.60;47.80;;;;;;10286192;28;20231;-73
2020/12/15 16:48:41;;;;;;;21.67;18.47;;;8.50;47.80;;;;;;10282546;28;20704;-72
2020/12/15 16:53:44;;;;;;;17.87;15.97;;;8.50;47.90;;;;;;10291728;28;20235;-73
2020/12/15 16:58:47;;;;;;;27.23;24.23;;;8.50;48.10;;;;;;10287852;28;20231;-72
2020/12/15 17:03:49;;;;;;;23.27;20.13;;;8.50;48.00;;;;;;10284338;28;20234;-72
2020/12/15 17:08:53;;;;;;;65.33;48.97;;;8.50;48.00;;;;;;10286782;28;20314;-72
2020/12/15 17:13:55;;;;;;;99.87;79.10;;;8.50;47.90;;;;;;10285623;28;20282;-72
2020/12/15 17:18:57;;;;;;;78.37;69.90;;;8.50;48.00;;;;;;10292303;28;20228;-72
2020/12/15 17:24:00;;;;;;;40.07;33.33;;;8.50;48.00;;;;;;10286588;28;20224;-73
2020/12/15 17:29:03;;;;;;;30.87;27.63;;;8.50;48.00;;;;;;10288477;28;20231;-73
2020/12/15 17:34:05;;;;;;;24.63;21.97;;;8.50;48.00;;;;;;10283084;28;20258;-71
2020/12/15 17:39:08;;;;;;;24.87;22.13;;;8.50;48.00;;;;;;10276833;28;20304;-71
2020/12/15 17:44:10;;;;;;;23.47;20.87;;;8.50;47.90;;;;;;10279485;28;20223;-72
2020/12/15 17:49:12;;;;;;;33.17;28.40;;;8.60;48.30;;;;;;10282649;28;20247;-72
2020/12/15 17:54:16;;;;;;;23.70;21.07;;;8.60;48.30;;;;;;10283917;28;20227;-72
2020/12/15 17:59:18;;;;;;;21.27;19.07;;;8.60;48.10;;;;;;10289598;28;20244;-73
2020/12/15 18:04:21;;;;;;;21.83;19.37;;;8.60;48.10;;;;;;10293939;28;22127;-73
2020/12/15 18:09:24;;;;;;;39.90;28.90;;;8.60;48.10;;;;;;10287687;28;20255;-73
2020/12/15 18:14:26;;;;;;;65.67;50.70;;;8.60;47.90;;;;;;10279840;28;20603;-73
2020/12/15 18:19:33;;;;;;;41.07;29.97;;;8.60;47.80;;;;;;10278522;28;20232;-73
2020/12/15 18:24:42;;;;;;;26.43;21.70;;;8.60;47.90;;;;;;10285437;28;20310;-73
2020/12/15 18:29:49;;;;;;;21.73;19.13;;;8.60;47.90;;;;;;10277348;28;20817;-73
2020/12/15 18:34:56;;;;;;;66.30;52.97;;;8.60;47.90;;;;;;10279643;28;20230;-73
2020/12/15 18:40:07;;;;;;;26.40;21.77;;;8.60;47.90;;;;;;10276730;28;20326;-73
2020/12/15 18:45:15;;;;;;;24.47;21.33;;;8.60;47.90;;;;;;10281492;28;20644;-73
2020/12/15 18:50:22;;;;;;;24.77;20.93;;;8.60;48.00;;;;;;10281340;28;20318;-72
2020/12/15 18:55:30;;;;;;;33.10;25.87;;;8.60;48.10;;;;;;10283239;28;20281;-72
2020/12/15 19:00:38;;;;;;;32.17;25.20;;;8.60;48.10;;;;;;10283466;28;20219;-72
2020/12/15 19:05:45;;;;;;;47.40;31.33;;;8.60;48.20;;;;;;10282023;28;20260;-72
2020/12/15 19:10:53;;;;;;;29.20;20.40;;;8.60;48.00;;;;;;10285096;28;20227;-72
2020/12/15 19:16:00;;;;;;;28.60;21.37;;;8.60;48.10;;;;;;10277911;28;20330;-72
2020/12/15 19:21:07;;;;;;;21.60;18.63;;;8.60;48.10;;;;;;10281384;28;20263;-72
2020/12/15 19:26:16;;;;;;;20.70;18.47;;;8.60;47.90;;;;;;10280783;28;20224;-71
2020/12/15 19:31:23;;;;;;;21.27;18.43;;;8.60;48.00;;;;;;10286944;28;20314;-71
2020/12/15 19:36:34;;;;;;;19.13;17.07;;;8.60;48.10;;;;;;10287822;28;20242;-72
2020/12/15 19:41:42;;;;;;;23.03;20.73;;;8.60;48.00;;;;;;10284196;28;20308;-73
2020/12/15 19:46:50;;;;;;;20.47;18.07;;;8.70;48.00;;;;;;10272462;28;20730;-72
2020/12/15 19:51:58;;;;;;;19.77;17.63;;;8.60;48.70;;;;;;10288563;28;20224;-72
2020/12/15 19:57:06;;;;;;;19.33;17.07;;;8.60;48.00;;;;;;10286573;28;20295;-72
2020/12/15 20:02:13;;;;;;;24.03;21.40;;;8.60;48.00;;;;;;10276108;28;20306;-72
2020/12/15 20:07:20;;;;;;;34.30;30.60;;;8.60;48.10;;;;;;10285706;28;20310;-72
2020/12/15 20:12:29;;;;;;;33.23;26.57;;;8.60;48.10;;;;;;10284971;28;20311;-72
2020/12/15 20:17:36;;;;;;;29.30;22.63;;;8.70;48.20;;;;;;10294536;28;20318;-72
2020/12/15 20:22:43;;;;;;;23.87;19.60;;;8.70;48.30;;;;;;10273106;28;20243;-72
2020/12/15 20:27:51;;;;;;;22.63;18.90;;;8.70;48.10;;;;;;10274263;28;20303;-72
2020/12/15 20:32:58;;;;;;;24.37;21.77;;;8.80;48.20;;;;;;10285839;28;20319;-72
2020/12/15 20:38:06;;;;;;;28.10;23.20;;;8.80;48.10;;;;;;10279004;28;20311;-72
2020/12/15 20:43:09;;;;;;;28.27;23.63;;;8.80;48.20;;;;;;10283144;28;20232;-72
2020/12/15 20:48:16;;;;;;;18.10;15.17;;;8.90;48.10;;;;;;10267301;28;20714;-69
2020/12/15 20:53:23;;;;;;;16.10;13.83;;;8.90;49.80;;;;;;10284208;28;20228;-72
2020/12/15 20:58:31;;;;;;;17.53;15.07;;;9.00;51.80;;;;;;10276580;28;20254;-71
2020/12/15 21:03:38;;;;;;;23.70;20.27;;;9.30;51.20;;;;;;10282079;28;20303;-71
2020/12/15 21:08:45;;;;;;;30.13;25.07;;;9.40;49.40;;;;;;10285652;28;20318;-71
2020/12/15 21:13:53;;;;;;;22.40;19.23;;;9.50;48.60;;;;;;10274787;28;20303;-72
2020/12/15 21:19:01;;;;;;;21.03;18.27;;;9.50;48.40;;;;;;10274687;28;20822;-71
2020/12/15 21:24:08;;;;;;;17.30;15.17;;;9.40;48.10;;;;;;10280692;28;20686;-71
2020/12/15 21:29:16;;;;;;;25.73;21.77;;;9.40;48.00;;;;;;10283100;28;20219;-71
2020/12/15 21:34:23;;;;;;;19.60;17.47;;;9.30;47.70;;;;;;10279995;28;20304;-72
2020/12/15 21:39:25;;;;;;;21.17;18.40;;;9.30;47.70;;;;;;10282567;28;20256;-72
2020/12/15 21:44:29;;;;;;;22.30;19.90;;;9.20;47.80;;;;;;10280295;28;20275;-72
2020/12/15 21:49:33;;;;;;;20.03;16.63;;;9.20;47.80;;;;;;10280714;28;20234;-72
2020/12/15 21:54:35;;;;;;;18.17;15.80;;;9.20;48.00;;;;;;10277317;28;20712;-72
2020/12/15 21:59:38;;;;;;;18.03;16.13;;;9.20;47.90;;;;;;10278836;28;20225;-71
2020/12/15 22:04:40;;;;;;;17.30;15.53;;;9.10;47.90;;;;;;10273132;28;20223;-71
2020/12/15 22:09:43;;;;;;;18.73;16.33;;;9.10;47.70;;;;;;10282085;28;20595;-71
2020/12/15 22:14:46;;;;;;;18.30;16.00;;;9.00;47.70;;;;;;10274527;28;20230;-71
2020/12/15 22:19:48;;;;;;;17.37;14.87;;;9.00;47.70;;;;;;10279806;28;20725;-71
2020/12/15 22:24:59;;;;;;;17.97;16.17;;;9.00;47.80;;;;;;10284635;28;20743;-71
2020/12/15 22:30:05;;;;;;;16.83;15.03;;;8.90;47.70;;;;;;10275576;28;20750;-71
2020/12/15 22:35:07;;;;;;;17.33;15.37;;;8.90;47.90;;;;;;10282539;28;20224;-71
2020/12/15 22:40:10;;;;;;;17.23;15.53;;;8.90;47.90;;;;;;10288849;28;20234;-72
2020/12/15 22:45:13;;;;;;;17.37;15.57;;;8.90;47.90;;;;;;10279262;28;20224;-71
2020/12/15 22:50:15;;;;;;;14.60;13.13;;;8.90;47.80;;;;;;10281156;28;20740;-71
2020/12/15 22:55:17;;;;;;;16.47;14.83;;;8.90;48.00;;;;;;10279960;28;20228;-71
2020/12/15 23:00:26;;;;;;;15.50;13.97;;;8.90;48.00;;;;;;10278793;28;20231;-71
2020/12/15 23:05:28;;;;;;;16.17;14.53;;;8.90;47.90;;;;;;10275130;28;20234;-71
2020/12/15 23:10:30;;;;;;;16.80;15.00;;;8.90;48.00;;;;;;10282637;28;20224;-71
2020/12/15 23:15:33;;;;;;;16.47;14.87;;;8.90;47.90;;;;;;10273706;28;20231;-72
2020/12/15 23:20:36;;;;;;;18.30;16.50;;;9.00;47.90;;;;;;10270272;28;20798;-72
2020/12/15 23:25:38;;;;;;;15.90;14.30;;;9.00;47.90;;;;;;10286187;28;20601;-72
2020/12/15 23:30:41;;;;;;;16.33;14.73;;;9.00;47.80;;;;;;10277639;28;20358;-71
2020/12/15 23:35:43;;;;;;;15.27;13.67;;;9.00;47.80;;;;;;10281055;28;20607;-72
2020/12/15 23:40:45;;;;;;;15.37;13.87;;;9.00;47.80;;;;;;10284717;28;20227;-71
2020/12/15 23:45:48;;;;;;;15.67;14.10;;;9.00;47.80;;;;;;10273317;28;20219;-71
2020/12/15 23:50:50;;;;;;;14.63;13.33;;;9.00;47.60;;;;;;10283600;28;20239;-72
2020/12/15 23:55:53;;;;;;;14.13;12.83;;;9.00;47.70;;;;;;10277083;28;20610;-71
